Time;durP1;ratioP1;P1;durP2;ratioP2;P2;SDS_P1;SDS_P2;PMS_P1;PMS_P2;Temp;Humidity;BMP_temperature;BMP_pressure;BME280_temperature;BME280_humidity;BME280_pressure;Samples;Min_cycle;Max_cycle;Signal;HPM_P1;HPM_P2
2022/01/12 00:01:59;;;;;;;205.85;167.85;;;;;;;14.91;30.23;95097.25;4968089;28;20058;-67
2022/01/12 00:04:24;;;;;;;205.40;165.68;;;;;;;14.93;30.25;95092.22;4966712;28;20092;-67
2022/01/12 00:06:50;;;;;;;192.63;155.93;;;;;;;14.91;30.36;95099.94;4970338;28;21128;-67
2022/01/12 00:09:15;;;;;;;200.23;163.63;;;;;;;14.92;30.29;95088.00;4968988;28;20057;-67
2022/01/12 00:11:41;;;;;;;200.80;164.98;;;;;;;14.93;30.22;95102.22;4969718;28;20060;-66
2022/01/12 00:14:06;;;;;;;198.75;161.57;;;;;;;14.90;30.29;95093.03;4969352;28;20047;-67
2022/01/12 00:16:33;;;;;;;193.73;157.65;;;;;;;14.91;30.40;95099.94;4966610;28;20054;-67
2022/01/12 00:19:00;;;;;;;196.60;160.43;;;;;;;14.91;30.38;95096.50;4966243;28;20116;-67
2022/01/12 00:21:25;;;;;;;204.88;165.73;;;;;;;14.91;30.25;95101.88;4965274;28;20059;-67
2022/01/12 00:23:51;;;;;;;198.05;160.82;;;;;;;14.90;30.26;95095.72;4965583;28;20105;-67
2022/01/12 00:34:27;;;;;;;202.05;162.90;;;;;;;14.93;30.02;95113.00;4966433;28;20043;-67
2022/01/12 00:36:53;;;;;;;198.32;161.68;;;;;;;14.94;30.05;95117.22;4967245;28;20066;-67
2022/01/12 00:39:18;;;;;;;194.68;159.00;;;;;;;14.94;30.08;95119.91;4966780;28;20062;-67
2022/01/12 00:41:44;;;;;;;192.10;154.90;;;;;;;14.94;30.22;95122.59;4969585;28;20418;-67
2022/01/12 00:44:20;;;;;;;198.82;162.93;;;;;;;14.94;29.85;95119.91;4967663;28;20081;-67
2022/01/12 00:46:46;;;;;;;194.25;157.43;;;;;;;14.95;29.91;95122.16;4966604;28;20360;-67
2022/01/12 00:49:12;;;;;;;198.43;161.23;;;;;;;14.96;29.91;95125.63;4971092;28;20129;-67
2022/01/12 00:51:39;;;;;;;199.73;161.30;;;;;;;14.94;29.99;95119.91;4966663;28;20415;-67
2022/01/12 00:54:06;;;;;;;197.50;161.40;;;;;;;14.95;29.83;95119.47;4964470;28;20058;-67
2022/01/12 00:56:32;;;;;;;194.80;158.15;;;;;;;14.94;29.77;95117.97;4969204;28;20418;-67
2022/01/12 00:58:58;;;;;;;194.50;159.25;;;;;;;14.94;29.97;95109.91;4971416;28;20046;-67
2022/01/12 01:01:24;;;;;;;199.15;163.10;;;;;;;14.93;29.89;95104.91;4965167;28;20767;-67
2022/01/12 01:03:50;;;;;;;201.52;164.27;;;;;;;14.94;30.04;95104.50;4967737;28;20058;-67
2022/01/12 01:06:17;;;;;;;200.02;163.60;;;;;;;14.93;29.82;95110.31;4967169;28;20054;-67
2022/01/12 01:08:44;;;;;;;195.48;158.68;;;;;;;14.94;29.77;95111.84;4965985;28;20051;-67
2022/01/12 01:11:09;;;;;;;198.00;162.55;;;;;;;14.95;29.76;95116.06;4966103;28;20490;-67
2022/01/12 01:13:43;;;;;;;197.77;162.90;;;;;;;14.95;29.89;95124.88;4968130;28;20104;-67
2022/01/12 01:16:17;;;;;;;202.32;165.13;;;;;;;14.94;29.83;95117.97;4965242;28;20050;-67
2022/01/12 01:26:59;;;;;;;198.15;159.43;;;;;;;14.92;29.77;95123.00;4966644;28;20031;-67
2022/01/12 01:29:25;;;;;;;195.07;159.02;;;;;;;14.94;29.61;95120.69;4968167;28;20035;-67
2022/01/12 01:31:50;;;;;;;206.38;168.57;;;;;;;14.93;29.56;95124.53;4962930;28;20069;-67
2022/01/12 01:34:16;;;;;;;194.88;156.15;;;;;;;14.94;29.68;95126.06;4964816;28;20169;-67
2022/01/12 01:36:50;;;;;;;195.13;160.23;;;;;;;14.94;29.70;95130.69;4964240;28;20043;-67
2022/01/12 01:39:18;;;;;;;191.80;154.90;;;;;;;14.94;29.63;95136.06;4969297;28;20042;-67
2022/01/12 01:41:50;;;;;;;193.35;157.82;;;;;;;14.94;29.49;95131.44;4964511;28;20047;-67
2022/01/12 01:54:56;;;;;;;199.95;160.77;;;;;;;14.94;29.52;95128.00;4962277;28;20096;-67
2022/01/12 01:57:24;;;;;;;199.50;161.00;;;;;;;14.93;29.59;95126.47;4965484;28;20043;-67
2022/01/12 01:59:50;;;;;;;189.93;150.80;;;;;;;14.91;29.66;95124.19;4967382;28;20055;-67
2022/01/12 02:02:16;;;;;;;196.13;158.45;;;;;;;14.93;29.52;95126.47;4968637;28;20062;-67
2022/01/12 02:04:41;;;;;;;197.13;160.88;;;;;;;14.91;29.64;95124.19;4970536;28;20046;-67
2022/01/12 02:07:07;;;;;;;195.75;158.55;;;;;;;14.90;29.71;95119.97;4986356;28;20197;-67
2022/01/12 02:09:35;;;;;;;194.68;158.85;;;;;;;14.90;29.50;95122.66;4969993;28;20202;-67
2022/01/12 02:12:01;;;;;;;192.35;156.68;;;;;;;14.91;29.36;95109.94;4969409;28;20188;-67
2022/01/12 02:14:31;;;;;;;191.52;155.40;;;;;;;14.91;29.29;95118.78;4968298;28;20043;-67
2022/01/12 02:17:05;;;;;;;198.02;161.10;;;;;;;14.90;29.53;95111.88;4967019;28;20154;-67
2022/01/12 02:41:21;;;;;;;195.18;157.82;;;;;;;14.89;29.26;95096.13;4971474;28;20522;-67
2022/01/12 02:54:46;;;;;;;189.60;152.77;;;;;;;14.88;29.16;95098.06;4967508;28;20046;-67
2022/01/12 02:57:12;;;;;;;190.60;155.37;;;;;;;14.88;29.12;95098.06;4975278;28;20151;-67
2022/01/12 02:59:45;;;;;;;195.63;157.93;;;;;;;14.88;29.23;95102.69;4971240;28;20151;-67
2022/01/12 03:04:46;;;;;;;193.75;157.60;;;;;;;14.87;29.02;95101.16;4973289;28;20057;-67
2022/01/12 03:07:16;;;;;;;194.73;156.48;;;;;;;14.88;29.20;95102.69;4971004;28;20873;-67
2022/01/12 03:09:41;;;;;;;192.20;155.77;;;;;;;14.88;29.17;95100.00;4968600;28;20053;-67
2022/01/12 03:12:07;;;;;;;194.35;158.50;;;;;;;14.87;29.04;95101.91;4970572;28;20046;-67
2022/01/12 03:14:33;;;;;;;194.82;157.60;;;;;;;14.88;28.94;95102.69;4966689;28;20050;-67
2022/01/12 03:16:58;;;;;;;194.93;158.60;;;;;;;14.87;28.97;95103.84;4969000;28;20409;-67
2022/01/12 03:19:24;;;;;;;194.75;158.43;;;;;;;14.87;28.99;95101.16;4969410;28;20042;-67
2022/01/12 03:21:49;;;;;;;195.45;157.65;;;;;;;14.87;28.94;95101.16;4969285;28;20057;-67
2022/01/12 03:24:15;;;;;;;198.75;159.95;;;;;;;14.86;28.92;95105.03;4968231;28;20466;-67
2022/01/12 03:26:40;;;;;;;200.55;162.25;;;;;;;14.87;29.01;95101.16;4969235;28;20053;-67
2022/01/12 03:29:06;;;;;;;193.50;155.85;;;;;;;14.84;28.83;95094.66;4970048;28;20492;-67
2022/01/12 03:31:34;;;;;;;192.40;156.00;;;;;;;14.84;29.06;95102.72;4967362;28;20049;-67
2022/01/12 03:34:23;;;;;;;195.98;157.45;;;;;;;14.83;29.03;95095.81;4967638;28;20066;-67
2022/01/12 03:37:17;;;;;;;198.48;159.63;;;;;;;14.85;28.94;95098.09;4965734;28;20065;-67
2022/01/12 03:39:41;;;;;;;197.73;157.90;;;;;;;14.83;28.85;95098.50;4965791;28;20168;-67
2022/01/12 03:42:07;;;;;;;200.10;160.77;;;;;;;14.86;28.95;95099.63;4967912;28;20081;-67
2022/01/12 03:44:32;;;;;;;195.15;156.02;;;;;;;14.84;28.88;95102.72;4967047;28;20050;-67
2022/01/12 03:46:58;;;;;;;198.55;161.23;;;;;;;14.83;28.91;95112.75;4966262;28;20050;-67
2022/01/12 03:49:23;;;;;;;195.88;158.00;;;;;;;14.83;28.87;95111.97;4969141;28;20089;-67
2022/01/12 03:51:49;;;;;;;199.63;161.13;;;;;;;14.83;28.96;95112.75;4969495;28;20683;-67
2022/01/12 03:54:16;;;;;;;194.02;157.20;;;;;;;14.83;28.99;95123.50;4967836;28;20058;-66
2022/01/12 03:56:41;;;;;;;193.05;156.77;;;;;;;14.85;28.95;95130.44;4966731;28;20563;-67
2022/01/12 03:59:07;;;;;;;203.43;164.05;;;;;;;14.83;28.82;95133.53;4966450;28;20047;-67
2022/01/12 04:01:34;;;;;;;193.02;155.70;;;;;;;14.83;28.76;95144.28;4967103;28;20499;-67
2022/01/12 04:04:04;;;;;;;195.75;157.57;;;;;;;14.84;28.86;95156.59;4970319;28;20302;-67
2022/01/12 04:09:16;;;;;;;199.23;159.50;;;;;;;14.82;28.82;95150.84;4966977;28;20101;-67
2022/01/12 04:11:42;;;;;;;201.23;162.93;;;;;;;14.82;28.63;95146.22;4966608;28;20488;-67
2022/01/12 04:14:08;;;;;;;191.93;154.02;;;;;;;14.83;29.09;95144.28;4966648;28;20042;-67
2022/01/12 04:16:36;;;;;;;195.90;159.05;;;;;;;14.82;28.69;95146.22;4967361;28;20038;-67
2022/01/12 04:19:02;;;;;;;195.93;157.05;;;;;;;14.82;28.85;95142.78;4974309;28;20058;-67
2022/01/12 04:21:29;;;;;;;199.55;160.55;;;;;;;14.81;28.75;95152.00;4968056;28;20054;-67
2022/01/12 04:23:57;;;;;;;194.45;155.13;;;;;;;14.81;28.81;95147.41;4971669;28;20146;-67
2022/01/12 04:26:23;;;;;;;203.00;163.70;;;;;;;14.79;28.69;95154.34;4965954;28;20109;-67
2022/01/12 04:28:49;;;;;;;193.60;157.07;;;;;;;14.79;28.60;95152.41;4967426;28;20487;-67
2022/01/12 04:31:15;;;;;;;199.88;161.05;;;;;;;14.80;28.66;95153.19;4965592;28;20054;-67
2022/01/12 04:33:42;;;;;;;203.43;161.80;;;;;;;14.80;28.60;95147.81;4966081;28;20043;-67
2022/01/12 04:36:09;;;;;;;197.98;158.68;;;;;;;14.80;28.54;95143.19;4970146;28;20199;-67
2022/01/12 04:38:37;;;;;;;196.00;157.48;;;;;;;14.80;28.37;95148.56;4967546;28;20046;-67
2022/01/12 04:41:05;;;;;;;196.43;157.73;;;;;;;14.81;28.47;95163.56;4964917;28;20420;-67
2022/01/12 04:43:31;;;;;;;198.82;160.85;;;;;;;14.80;28.41;95156.63;4968311;28;20046;-68
2022/01/12 04:46:10;;;;;;;204.10;164.30;;;;;;;14.80;28.51;95158.56;4964536;28;20065;-67
2022/01/12 04:48:52;;;;;;;199.25;161.25;;;;;;;14.80;28.47;95170.09;4966919;28;20050;-67
2022/01/12 04:51:18;;;;;;;195.85;157.85;;;;;;;14.80;28.48;95177.41;4965795;28;20046;-67
2022/01/12 04:53:44;;;;;;;200.00;162.48;;;;;;;14.79;28.64;95179.34;4969008;28;20387;-67
2022/01/12 04:56:10;;;;;;;194.57;157.20;;;;;;;14.81;28.54;95193.19;4968180;28;20042;-67
2022/01/12 04:58:36;;;;;;;194.60;158.18;;;;;;;14.78;28.21;95185.13;4968504;28;20058;-67
2022/01/12 05:01:09;;;;;;;192.55;155.63;;;;;;;14.79;28.41;95195.50;4967847;28;20062;-67
2022/01/12 05:07:09;;;;;;;197.70;159.57;;;;;;;14.79;28.51;95194.75;4969541;28;20054;-67
2022/01/12 05:09:16;;;;;;;193.85;155.60;;;;;;;14.80;28.46;95194.34;4963954;28;20134;-68
2022/01/12 05:14:27;;;;;;;189.00;151.38;;;;;;;14.81;28.42;95197.78;4965619;28;20121;-68
2022/01/12 05:16:53;;;;;;;203.45;161.43;;;;;;;14.80;28.36;95198.97;4963200;28;20122;-66
2022/01/12 05:19:19;;;;;;;196.80;159.55;;;;;;;14.80;28.27;95188.94;4967835;28;20145;-67
2022/01/12 05:21:44;;;;;;;193.88;157.20;;;;;;;14.80;28.33;95194.34;4969170;28;20465;-65
2022/01/12 05:24:10;;;;;;;194.60;156.75;;;;;;;14.79;28.49;95186.66;4988479;28;20050;-65
2022/01/12 05:26:36;;;;;;;197.02;157.50;;;;;;;14.80;28.16;95191.66;4967039;28;20050;-66
2022/01/12 05:29:03;;;;;;;188.40;149.32;;;;;;;14.81;28.54;95189.72;4964837;28;20050;-65
2022/01/12 05:31:29;;;;;;;197.68;159.68;;;;;;;14.80;28.34;95191.66;4967586;28;20057;-66
2022/01/12 05:33:58;;;;;;;198.48;160.13;;;;;;;14.81;28.34;95190.47;4973522;28;20050;-66
2022/01/12 05:36:24;;;;;;;201.48;162.32;;;;;;;14.81;28.28;95198.56;4969081;28;20046;-66
2022/01/12 05:38:50;;;;;;;191.60;155.73;;;;;;;14.82;28.22;95196.63;4967472;28;20057;-66
2022/01/12 05:41:16;;;;;;;199.38;161.88;;;;;;;14.81;28.41;95195.88;4967193;28;20053;-71
2022/01/12 05:43:44;;;;;;;191.68;154.02;;;;;;;14.82;28.17;95193.94;4965687;28;20202;-66
2022/01/12 05:46:12;;;;;;;192.10;154.77;;;;;;;14.83;28.15;95206.22;4967615;28;20054;-66
2022/01/12 05:51:23;;;;;;;192.25;152.63;;;;;;;14.80;28.30;95213.19;4965237;28;20420;-66
2022/01/12 05:53:49;;;;;;;194.55;156.30;;;;;;;14.82;28.14;95223.56;4966257;28;20043;-66
2022/01/12 05:56:15;;;;;;;202.35;161.93;;;;;;;14.81;27.97;95224.72;4959875;28;21159;-66
2022/01/12 05:58:40;;;;;;;199.70;162.40;;;;;;;14.81;28.12;95227.41;4959316;28;20129;-66
2022/01/12 06:01:06;;;;;;;203.20;165.38;;;;;;;14.81;28.28;95235.50;4961799;28;20065;-66
2022/01/12 06:03:31;;;;;;;192.07;155.38;;;;;;;14.81;28.13;95243.56;4967374;28;20047;-66
2022/01/12 06:05:57;;;;;;;195.18;159.65;;;;;;;14.81;28.16;95254.34;4966775;28;20050;-66
2022/01/12 06:08:22;;;;;;;205.93;164.48;;;;;;;14.82;28.07;95263.97;4967393;28;20050;-66
2022/01/12 06:10:48;;;;;;;192.88;157.82;;;;;;;14.82;28.17;95264.72;4965372;28;20046;-66
2022/01/12 06:13:13;;;;;;;193.63;155.90;;;;;;;14.82;28.12;95250.50;4966047;28;20054;-67
2022/01/12 06:15:39;;;;;;;193.60;156.43;;;;;;;14.81;28.00;95246.28;4966045;28;20046;-66
2022/01/12 06:18:04;;;;;;;200.25;159.90;;;;;;;14.81;28.59;95243.56;4964698;28;20043;-66
2022/01/12 06:20:30;;;;;;;194.80;158.52;;;;;;;14.81;28.04;95236.25;4966662;28;20205;-66
2022/01/12 06:22:55;;;;;;;191.70;154.27;;;;;;;14.81;28.10;95244.34;4966956;28;20557;-66
2022/01/12 06:25:21;;;;;;;208.35;165.73;;;;;;;14.82;28.02;95251.25;4966713;28;20053;-66
2022/01/12 06:27:56;;;;;;;203.07;163.80;;;;;;;14.83;28.32;95242.00;4965449;28;20531;-66
2022/01/12 06:32:58;;;;;;;198.43;157.90;;;;;;;14.82;27.90;95234.34;4967130;28;20047;-66
2022/01/12 06:35:28;;;;;;;197.27;158.23;;;;;;;14.82;28.13;95237.03;4965858;28;20050;-66
2022/01/12 06:37:54;;;;;;;195.25;156.70;;;;;;;14.81;27.97;95230.88;4966438;28;20046;-66
2022/01/12 06:40:22;;;;;;;194.38;156.35;;;;;;;14.81;27.94;95233.56;4967024;28;20140;-66
2022/01/12 06:42:47;;;;;;;197.43;158.63;;;;;;;14.82;27.80;95239.72;4964860;28;20042;-66
2022/01/12 06:45:13;;;;;;;204.52;164.32;;;;;;;14.81;27.80;95243.56;4964660;28;20042;-67
2022/01/12 06:47:39;;;;;;;194.60;157.35;;;;;;;14.81;27.89;95255.13;4966716;28;20053;-67
2022/01/12 06:50:06;;;;;;;191.35;154.35;;;;;;;14.81;27.89;95255.13;4966297;28;20054;-66
2022/01/12 06:52:32;;;;;;;195.57;158.40;;;;;;;14.81;27.84;95265.13;4971045;28;20685;-66
2022/01/12 06:54:57;;;;;;;196.90;158.50;;;;;;;14.79;27.80;95272.84;4969402;28;20050;-66
2022/01/12 06:57:23;;;;;;;193.85;155.90;;;;;;;14.80;27.88;95283.22;4968422;28;20046;-66
2022/01/12 06:59:48;;;;;;;205.05;164.55;;;;;;;14.81;27.77;95292.81;4970772;28;20050;-67
2022/01/12 07:02:14;;;;;;;198.55;160.73;;;;;;;14.80;27.93;95295.91;4968584;28;20062;-67
2022/01/12 07:04:40;;;;;;;192.63;154.77;;;;;;;14.81;27.79;95292.06;4969149;28;20046;-66
2022/01/12 07:07:05;;;;;;;190.13;153.10;;;;;;;14.80;27.96;95291.28;4970218;28;20728;-66
2022/01/12 07:09:31;;;;;;;191.88;153.60;;;;;;;14.79;27.84;95289.00;4967456;28;20130;-66
2022/01/12 07:11:56;;;;;;;192.05;155.27;;;;;;;14.80;27.90;95301.28;4964638;28;20055;-66
2022/01/12 07:14:22;;;;;;;203.27;163.45;;;;;;;14.79;27.95;95311.31;4970914;28;20084;-66
2022/01/12 07:16:47;;;;;;;194.15;155.65;;;;;;;14.80;27.89;95325.53;4962547;28;20067;-66
2022/01/12 07:19:13;;;;;;;196.25;159.55;;;;;;;14.80;27.31;95323.59;4966365;28;20051;-66
2022/01/12 07:21:38;;;;;;;192.20;155.23;;;;;;;14.79;27.77;95330.16;4965474;28;20088;-66
2022/01/12 07:24:05;;;;;;;195.75;157.90;;;;;;;14.79;27.84;95332.09;4966919;28;20055;-66
2022/01/12 07:26:30;;;;;;;193.18;154.85;;;;;;;14.79;27.55;95330.16;4970245;28;20435;-66
2022/01/12 07:28:56;;;;;;;196.20;159.00;;;;;;;14.80;27.61;95336.31;4970491;28;20157;-66
2022/01/12 07:31:22;;;;;;;201.48;160.52;;;;;;;14.80;27.74;95336.31;4967022;28;20129;-67
2022/01/12 07:33:50;;;;;;;191.73;153.93;;;;;;;14.79;27.96;95330.16;4968941;28;20462;-66
2022/01/12 07:36:16;;;;;;;198.90;159.93;;;;;;;14.78;27.69;95328.63;4969029;28;20120;-66
2022/01/12 07:38:42;;;;;;;194.27;156.65;;;;;;;14.80;27.71;95336.31;4968370;28;20055;-67
2022/01/12 07:41:08;;;;;;;191.95;155.02;;;;;;;14.79;27.62;95342.84;4967993;28;20047;-68
2022/01/12 07:43:33;;;;;;;205.82;165.77;;;;;;;14.79;27.75;95337.47;4966959;28;20863;-66
2022/01/12 07:45:59;;;;;;;193.98;155.60;;;;;;;14.79;27.76;95334.78;4967373;28;20050;-66
2022/01/12 07:48:25;;;;;;;198.02;157.65;;;;;;;14.78;27.57;95341.31;4971229;28;20975;-66
2022/01/12 07:50:50;;;;;;;201.02;160.35;;;;;;;14.78;27.78;95352.88;4966200;28;20182;-66
2022/01/12 07:53:16;;;;;;;194.27;156.35;;;;;;;14.79;27.67;95365.16;4970834;28;20119;-65
2022/01/12 07:55:41;;;;;;;195.63;158.27;;;;;;;14.78;27.51;95369.03;4967539;28;20046;-64
2022/01/12 07:58:07;;;;;;;195.07;157.02;;;;;;;14.79;27.48;95369.78;4975473;28;20054;-64
2022/01/12 08:00:33;;;;;;;199.88;158.43;;;;;;;14.78;27.80;95366.31;4969928;28;20519;-64
2022/01/12 08:02:59;;;;;;;194.60;157.30;;;;;;;14.79;27.66;95369.78;4968707;28;20054;-65
2022/01/12 08:05:24;;;;;;;201.88;162.07;;;;;;;14.79;27.57;95380.56;4969548;28;20546;-65
2022/01/12 08:07:52;;;;;;;194.70;158.40;;;;;;;14.79;27.44;95375.16;4965851;28;20465;-65
2022/01/12 08:10:18;;;;;;;195.15;159.20;;;;;;;14.77;27.45;95383.66;4969375;28;20062;-66
2022/01/12 08:12:44;;;;;;;196.88;159.15;;;;;;;14.78;27.47;95385.19;4971243;28;20113;-66
2022/01/12 08:15:10;;;;;;;197.07;160.07;;;;;;;14.79;27.58;95388.63;4969060;28;20046;-66
2022/01/12 08:17:36;;;;;;;195.35;159.25;;;;;;;14.78;27.54;95385.19;4969631;28;20050;-66
2022/01/12 08:20:07;;;;;;;193.27;157.07;;;;;;;14.79;27.70;95391.34;4969554;28;20050;-66
2022/01/12 08:22:33;;;;;;;190.73;153.75;;;;;;;14.78;27.64;95403.25;4968743;28;20054;-66
2022/01/12 08:24:59;;;;;;;200.70;161.90;;;;;;;14.78;27.52;95412.09;4971851;28;20121;-67
2022/01/12 08:27:24;;;;;;;194.38;158.18;;;;;;;14.77;27.55;95402.50;4968641;28;20058;-67
2022/01/12 08:29:53;;;;;;;192.30;152.73;;;;;;;14.77;27.51;95405.19;4967546;28;20051;-67
2022/01/12 08:32:18;;;;;;;193.40;155.40;;;;;;;14.77;27.57;95407.88;4971146;28;20061;-68
2022/01/12 08:34:44;;;;;;;200.65;162.70;;;;;;;14.78;27.49;95398.66;4967078;28;20133;-66
2022/01/12 08:37:10;;;;;;;191.25;154.75;;;;;;;14.79;27.17;95399.41;4969559;28;21307;-68
2022/01/12 08:39:35;;;;;;;189.45;154.82;;;;;;;14.78;27.52;95403.25;4966439;28;20050;-64
2022/01/12 08:42:01;;;;;;;185.73;149.75;;;;;;;14.79;27.53;95407.50;4970708;28;20142;-64
2022/01/12 08:44:26;;;;;;;186.32;151.23;;;;;;;14.77;27.56;95402.50;4969797;28;20518;-64
2022/01/12 08:46:52;;;;;;;185.55;152.10;;;;;;;14.78;27.51;95405.97;4968329;28;20058;-63
2022/01/12 08:49:17;;;;;;;191.45;155.38;;;;;;;14.78;27.64;95406.72;4965817;28;20215;-64
2022/01/12 08:51:43;;;;;;;186.63;151.85;;;;;;;14.77;27.57;95402.50;4965371;28;20463;-64
2022/01/12 08:54:08;;;;;;;190.55;154.25;;;;;;;14.77;27.65;95390.97;4964819;28;20034;-64
2022/01/12 08:56:36;;;;;;;188.05;150.45;;;;;;;14.77;27.74;95390.97;4966429;28;20038;-64
2022/01/12 08:59:02;;;;;;;186.73;150.93;;;;;;;14.77;27.68;95394.41;4969155;28;20054;-64
2022/01/12 09:01:28;;;;;;;190.70;154.57;;;;;;;14.78;27.72;95397.88;4966479;28;20062;-64
2022/01/12 09:03:54;;;;;;;185.98;151.07;;;;;;;14.78;27.38;95405.97;4969874;28;20047;-64
2022/01/12 09:06:19;;;;;;;196.10;158.65;;;;;;;14.78;27.52;95411.34;4967419;28;20104;-64
2022/01/12 09:08:45;;;;;;;186.88;151.43;;;;;;;14.78;27.44;95401.34;4965050;28;20054;-64
2022/01/12 09:11:12;;;;;;;191.25;155.68;;;;;;;14.78;27.55;95397.88;4968121;28;20073;-64
2022/01/12 09:13:37;;;;;;;199.40;161.25;;;;;;;14.76;27.55;95403.66;4964204;28;20054;-64
2022/01/12 09:16:06;;;;;;;186.85;150.48;;;;;;;14.77;27.45;95413.28;4965219;28;20074;-64
2022/01/12 09:18:36;;;;;;;185.10;148.30;;;;;;;14.77;27.77;95415.97;4964990;28;20050;-63
2022/01/12 09:21:02;;;;;;;;;;;;;;;14.76;27.81;95417.13;4967435;28;20096;-64
2022/01/12 09:23:27;;;;;;;187.32;146.48;;;;;;;14.74;28.08;95419.44;4967917;28;19926;-64
2022/01/12 09:25:53;;;;;;;190.35;153.32;;;;;;;14.77;27.62;95415.19;4969141;28;20125;-64
2022/01/12 09:28:18;;;;;;;190.75;152.68;;;;;;;14.76;27.83;95413.66;4966451;28;20567;-63
2022/01/12 09:30:44;;;;;;;193.77;156.18;;;;;;;14.76;27.75;95419.06;4965522;28;20042;-63
2022/01/12 09:33:09;;;;;;;197.60;160.20;;;;;;;14.76;27.55;95414.44;4965534;28;20097;-63
2022/01/12 09:35:35;;;;;;;191.95;156.02;;;;;;;14.75;27.82;95417.53;4960231;28;20054;-63
2022/01/12 09:38:02;;;;;;;195.98;158.63;;;;;;;14.76;27.74;95411.75;4964993;28;20050;-63
2022/01/12 09:40:27;;;;;;;192.82;155.68;;;;;;;14.77;27.75;95409.81;4967603;28;20054;-63
2022/01/12 09:42:53;;;;;;;194.18;156.98;;;;;;;14.76;27.74;95410.97;4967105;28;20045;-63
2022/01/12 09:45:20;;;;;;;203.20;165.77;;;;;;;14.76;27.62;95405.59;4964552;28;20118;-63
2022/01/12 09:47:49;;;;;;;192.07;153.93;;;;;;;14.75;27.86;95407.50;4969109;28;20043;-63
2022/01/12 09:50:21;;;;;;;197.50;158.05;;;;;;;14.74;27.78;95408.69;4967413;28;20043;-63
2022/01/12 09:52:46;;;;;;;193.60;156.75;;;;;;;14.75;27.70;95406.75;4966251;28;20058;-63
2022/01/12 09:55:12;;;;;;;203.05;163.88;;;;;;;14.76;27.78;95405.59;4966056;28;20537;-62
2022/01/12 09:57:38;;;;;;;192.48;155.20;;;;;;;14.74;27.93;95387.13;4966775;28;20426;-63
2022/01/12 10:00:06;;;;;;;199.00;161.35;;;;;;;14.75;27.84;95390.59;4967646;28;20050;-63
2022/01/12 10:02:32;;;;;;;197.20;159.63;;;;;;;14.74;27.77;95397.16;4968283;28;20046;-63
2022/01/12 10:05:09;;;;;;;197.88;159.40;;;;;;;14.75;27.96;95388.66;4965809;28;20073;-63
2022/01/12 10:07:35;;;;;;;199.00;161.10;;;;;;;14.74;28.02;95381.00;4972397;28;20076;-63
2022/01/12 10:10:04;;;;;;;194.45;156.20;;;;;;;14.75;27.99;95382.50;4966381;28;20118;-64
2022/01/12 10:12:31;;;;;;;199.70;161.38;;;;;;;14.74;27.86;95368.28;4960170;28;20168;-63
2022/01/12 10:15:00;;;;;;;198.80;158.68;;;;;;;14.73;27.89;95350.59;4957223;28;20231;-63
2022/01/12 10:17:40;;;;;;;213.03;169.83;;;;;;;14.75;27.93;95345.59;4959240;28;20050;-63
2022/01/12 10:20:12;;;;;;;207.98;166.95;;;;;;;14.74;27.92;95346.75;4960770;28;20054;-63
2022/01/12 10:22:55;;;;;;;196.07;156.85;;;;;;;14.74;28.06;95354.81;4962702;28;21279;-63
2022/01/12 10:25:21;;;;;;;217.23;172.77;;;;;;;14.73;27.85;95364.06;4962035;28;20047;-63
2022/01/12 10:27:47;;;;;;;195.32;156.18;;;;;;;14.74;27.86;95367.53;4971902;28;20052;-63
2022/01/12 10:30:27;;;;;;;196.48;158.98;;;;;;;14.73;27.90;95356.00;4973129;28;20054;-63
2022/01/12 10:33:05;;;;;;;199.18;160.63;;;;;;;14.75;27.95;95352.91;4970968;28;20058;-63
2022/01/12 10:35:35;;;;;;;202.07;160.75;;;;;;;14.75;28.02;95350.97;4967420;28;20085;-63
2022/01/12 10:38:16;;;;;;;197.32;158.02;;;;;;;14.74;28.02;95343.28;4970155;28;20042;-63
2022/01/12 10:40:46;;;;;;;192.50;154.07;;;;;;;14.75;28.05;95339.44;4966910;28;20066;-63
2022/01/12 10:43:35;;;;;;;193.10;154.77;;;;;;;14.75;27.98;95347.50;4969083;28;20050;-64
2022/01/12 10:46:20;;;;;;;190.48;152.50;;;;;;;14.75;27.85;95350.19;4968136;28;20046;-64
2022/01/12 10:48:49;;;;;;;197.27;157.48;;;;;;;14.75;27.96;95350.19;4974179;28;20554;-63
2022/01/12 10:51:16;;;;;;;199.13;158.85;;;;;;;14.74;28.05;95354.81;4967559;28;20073;-64
2022/01/12 10:53:42;;;;;;;189.45;153.88;;;;;;;14.75;27.96;95356.34;4970314;28;20149;-65
2022/01/12 10:56:10;;;;;;;195.57;157.27;;;;;;;14.76;27.90;95351.72;4970298;28;20122;-65
2022/01/12 10:58:40;;;;;;;193.65;156.38;;;;;;;14.75;28.11;95356.34;4970701;28;20113;-66
2022/01/12 11:01:06;;;;;;;213.07;170.25;;;;;;;14.75;28.12;95340.19;4967019;28;20077;-66
2022/01/12 11:03:32;;;;;;;203.27;163.48;;;;;;;14.76;28.46;95338.28;4965408;28;20054;-65
2022/01/12 11:05:58;;;;;;;190.90;154.52;;;;;;;14.76;28.08;95347.09;4970023;28;20061;-65
2022/01/12 11:08:25;;;;;;;200.25;161.43;;;;;;;14.76;28.08;95338.28;4969873;28;20447;-65
2022/01/12 11:10:55;;;;;;;193.77;154.70;;;;;;;14.76;28.08;95347.09;4970589;28;20057;-64
2022/01/12 11:13:21;;;;;;;192.27;154.02;;;;;;;14.76;28.12;95335.56;4971883;28;20057;-66
2022/01/12 11:15:47;;;;;;;197.68;160.25;;;;;;;14.76;28.14;95328.25;4972316;28;20070;-68
2022/01/12 11:18:15;;;;;;;190.77;153.02;;;;;;;14.76;28.18;95322.09;4972847;28;20039;-67
2022/01/12 11:20:43;;;;;;;199.68;158.60;;;;;;;14.76;28.05;95314.03;4972494;28;20486;-66
2022/01/12 11:23:14;;;;;;;194.13;155.00;;;;;;;14.75;28.24;95321.34;4968096;28;20050;-66
2022/01/12 11:25:43;;;;;;;202.13;163.48;;;;;;;14.76;28.21;95320.19;4968669;28;20097;-66
2022/01/12 11:28:37;;;;;;;195.88;155.23;;;;;;;14.76;28.23;95304.03;4966759;28;20050;-65
2022/01/12 11:31:04;;;;;;;199.10;159.63;;;;;;;14.77;28.23;95300.16;4966288;28;20069;-64
2022/01/12 11:33:29;;;;;;;197.20;157.57;;;;;;;14.77;28.07;95294.00;4968183;28;20122;-65
2022/01/12 11:35:56;;;;;;;197.93;159.68;;;;;;;14.78;28.23;95304.38;4967675;28;20129;-65
2022/01/12 11:38:28;;;;;;;198.00;158.13;;;;;;;14.80;28.20;95312.84;4968250;28;20112;-65
2022/01/12 11:40:56;;;;;;;191.07;154.77;;;;;;;14.80;28.10;95323.59;4967089;28;20061;-65
2022/01/12 11:43:29;;;;;;;205.57;164.60;;;;;;;14.80;28.22;95326.28;4990508;28;20069;-65
2022/01/12 11:46:17;;;;;;;205.27;164.65;;;;;;;14.80;28.23;95334.38;4956486;28;20050;-65
2022/01/12 11:48:45;;;;;;;189.77;151.63;;;;;;;14.82;28.32;95333.97;4962815;28;20195;-65
2022/01/12 11:51:12;;;;;;;204.55;162.95;;;;;;;14.83;28.33;95343.59;4965299;28;20046;-65
2022/01/12 11:53:44;;;;;;;198.02;160.40;;;;;;;14.81;28.35;95352.06;4966214;28;20532;-65
2022/01/12 11:56:17;;;;;;;197.02;158.43;;;;;;;14.79;28.23;95362.47;4967000;28;20054;-65
2022/01/12 11:58:53;;;;;;;191.77;155.77;;;;;;;14.78;28.31;95363.63;4963411;28;20054;-65
2022/01/12 12:01:19;;;;;;;202.93;163.55;;;;;;;14.78;28.56;95365.56;4964188;28;20093;-65
2022/01/12 12:03:56;;;;;;;199.32;158.80;;;;;;;14.80;28.26;95361.31;4966339;28;20491;-65
2022/01/12 12:06:21;;;;;;;196.15;156.52;;;;;;;14.80;28.40;95371.31;4964939;28;20054;-65
2022/01/12 12:09:05;;;;;;;190.68;154.95;;;;;;;14.80;28.24;95360.53;4965906;28;20590;-65
2022/01/12 12:11:32;;;;;;;198.57;159.32;;;;;;;14.75;28.55;95353.66;4972626;28;20938;-65
2022/01/12 12:14:04;;;;;;;201.52;160.88;;;;;;;14.75;28.36;95359.03;4965473;28;20108;-65
2022/01/12 12:16:30;;;;;;;197.95;158.50;;;;;;;14.77;28.34;95342.50;4968635;28;20078;-65
2022/01/12 12:18:56;;;;;;;197.02;157.93;;;;;;;14.78;28.36;95339.41;4968319;28;20046;-65
2022/01/12 12:21:23;;;;;;;195.80;156.68;;;;;;;14.78;28.27;95336.69;4963266;28;20130;-65